Time;durP1;ratioP1;P1;durP2;ratioP2;P2;SDS_P1;SDS_P2;PMS_P1;PMS_P2;Temp;Humidity;BMP_temperature;BMP_pressure;BME280_temperature;BME280_humidity;BME280_pressure;Samples;Min_cycle;Max_cycle;Signal;HPM_P1;HPM_P2
2020/12/26 00:06:52;;;;;;;2.22;1.80;;;-2.10;99.90;;;;;;8325441;28;20071;-67
2020/12/26 00:10:52;;;;;;;2.78;2.00;;;-2.20;99.90;;;;;;8341526;28;20388;-68
2020/12/26 00:14:53;;;;;;;2.88;1.90;;;-2.40;99.90;;;;;;8324339;28;20114;-68
2020/12/26 00:18:53;;;;;;;2.00;1.52;;;-2.40;99.90;;;;;;8326046;28;20038;-67
2020/12/26 00:22:54;;;;;;;4.15;1.90;;;-2.10;99.90;;;;;;8332252;28;20033;-67
2020/12/26 00:26:58;;;;;;;3.17;1.45;;;-2.00;99.90;;;;;;8332499;28;20037;-67
2020/12/26 00:31:01;;;;;;;3.63;1.70;;;-1.50;99.90;;;;;;8331979;28;20057;-67
2020/12/26 00:35:02;;;;;;;4.68;2.70;;;-1.70;99.90;;;;;;8332142;28;20079;-68
2020/12/26 00:39:02;;;;;;;7.57;2.78;;;-2.00;99.90;;;;;;8331756;28;20021;-68
2020/12/26 00:48:00;;;;;;;5.47;2.67;;;-2.20;99.90;;;;;;8330497;28;20036;-67
2020/12/26 00:52:00;;;;;;;5.97;2.70;;;-2.50;99.90;;;;;;8331162;28;20165;-68
2020/12/26 00:56:01;;;;;;;4.18;2.65;;;-2.70;99.90;;;;;;8331083;28;20423;-68
2020/12/26 01:00:04;;;;;;;5.28;2.70;;;-2.70;99.90;;;;;;8329855;28;20060;-67
2020/12/26 01:04:04;;;;;;;3.20;1.95;;;-2.20;99.90;;;;;;8329593;28;20060;-68
2020/12/26 01:08:05;;;;;;;3.10;2.25;;;-2.40;99.90;;;;;;8331028;28;20021;-67
2020/12/26 01:12:06;;;;;;;3.63;2.20;;;-2.50;99.90;;;;;;8330754;28;20029;-67
2020/12/26 01:16:11;;;;;;;3.53;2.10;;;-2.30;99.90;;;;;;8330820;28;20021;-68
2020/12/26 01:20:11;;;;;;;3.08;2.10;;;-2.60;99.90;;;;;;8330242;28;20049;-68
2020/12/26 01:24:12;;;;;;;4.35;2.30;;;-2.80;99.90;;;;;;8330524;28;20036;-67
2020/12/26 01:28:12;;;;;;;3.95;2.38;;;-3.00;99.90;;;;;;8346008;28;20115;-68
2020/12/26 01:32:13;;;;;;;5.22;2.85;;;-2.60;99.90;;;;;;8329137;28;20036;-67
2020/12/26 01:36:14;;;;;;;5.35;2.95;;;-2.80;99.90;;;;;;8330790;28;20071;-67
2020/12/26 01:40:14;;;;;;;3.60;2.50;;;-3.00;99.90;;;;;;8329840;28;20052;-68
2020/12/26 01:44:15;;;;;;;5.30;3.10;;;-2.90;99.90;;;;;;8328535;28;20030;-67
2020/12/26 01:48:17;;;;;;;5.68;2.97;;;-3.00;99.90;;;;;;8329719;28;20017;-67
2020/12/26 01:52:18;;;;;;;5.53;2.90;;;-3.10;99.90;;;;;;8329226;28;20025;-67
2020/12/26 01:56:19;;;;;;;5.47;2.88;;;-3.10;99.90;;;;;;8329768;28;20057;-68
2020/12/26 02:00:20;;;;;;;4.20;2.72;;;-3.30;99.90;;;;;;8329245;28;20037;-68
2020/12/26 02:04:21;;;;;;;4.38;3.00;;;-3.30;99.90;;;;;;8328926;28;20565;-68
2020/12/26 02:08:21;;;;;;;6.88;3.17;;;-3.30;99.90;;;;;;8329144;28;20028;-68
2020/12/26 02:12:22;;;;;;;7.90;3.00;;;-3.00;99.90;;;;;;8328634;28;20029;-67
2020/12/26 02:16:24;;;;;;;6.30;3.35;;;-2.80;99.90;;;;;;8327409;28;20075;-68
2020/12/26 02:20:24;;;;;;;5.93;3.15;;;-2.90;99.90;;;;;;8328424;28;20025;-67
2020/12/26 02:24:25;;;;;;;5.88;3.20;;;-3.00;99.90;;;;;;8328437;28;20079;-67
2020/12/26 02:28:25;;;;;;;5.00;2.92;;;-2.90;99.90;;;;;;8328511;28;20025;-67
2020/12/26 02:32:26;;;;;;;5.82;3.35;;;-2.70;99.90;;;;;;8327728;28;20026;-67
2020/12/26 02:36:26;;;;;;;4.57;3.08;;;-2.90;99.90;;;;;;8328261;28;20029;-67
2020/12/26 02:40:27;;;;;;;7.50;3.60;;;-3.20;99.90;;;;;;8327915;28;20032;-67
2020/12/26 02:44:27;;;;;;;7.00;3.40;;;-3.40;99.90;;;;;;8327765;28;20056;-67
2020/12/26 02:48:28;;;;;;;8.18;3.75;;;-3.70;99.90;;;;;;8327789;28;20107;-68
2020/12/26 02:52:28;;;;;;;8.38;4.18;;;-3.90;99.90;;;;;;8326917;28;20492;-67
2020/12/26 02:56:29;;;;;;;9.18;4.93;;;-3.90;99.90;;;;;;8366076;22;20140;-73
2020/12/26 03:00:30;;;;;;;6.05;4.25;;;-3.60;99.90;;;;;;8327409;28;20033;-73
2020/12/26 03:04:31;;;;;;;7.18;4.15;;;-3.70;99.90;;;;;;8332878;28;20028;-74
2020/12/26 03:08:31;;;;;;;8.40;4.00;;;-3.90;99.90;;;;;;8360906;28;20033;-74
2020/12/26 03:12:32;;;;;;;6.28;3.22;;;-4.00;99.90;;;;;;8360826;28;20029;-74
2020/12/26 03:16:32;;;;;;;9.63;3.55;;;-3.70;99.90;;;;;;8360644;28;20029;-74
2020/12/26 03:20:33;;;;;;;7.90;4.25;;;-3.40;99.90;;;;;;8360342;28;20025;-73
2020/12/26 03:24:33;;;;;;;5.63;3.60;;;-3.20;99.90;;;;;;8360778;28;20399;-73
2020/12/26 03:28:34;;;;;;;6.50;3.75;;;-3.40;99.90;;;;;;8360484;28;20104;-73
2020/12/26 03:32:35;;;;;;;6.85;3.55;;;-3.60;99.90;;;;;;8359278;28;20402;-73
2020/12/26 03:36:35;;;;;;;7.50;3.60;;;-3.80;99.90;;;;;;8360451;28;20033;-74
2020/12/26 03:40:36;;;;;;;6.00;3.60;;;-4.00;99.90;;;;;;8360026;28;20044;-73
2020/12/26 03:44:38;;;;;;;6.78;4.13;;;-3.90;99.90;;;;;;8360153;28;20025;-73
2020/12/26 03:48:39;;;;;;;9.48;4.07;;;-3.70;99.90;;;;;;8359768;28;20026;-74
2020/12/26 03:52:39;;;;;;;8.85;4.00;;;-4.00;99.90;;;;;;8359872;28;20064;-73
2020/12/26 03:56:40;;;;;;;8.13;3.78;;;-4.10;99.90;;;;;;8365019;28;20041;-75
2020/12/26 04:00:40;;;;;;;6.53;3.72;;;-3.90;99.90;;;;;;8366482;28;20036;-73
2020/12/26 04:04:41;;;;;;;9.43;3.65;;;-3.80;99.90;;;;;;8366742;28;20018;-72
2020/12/26 04:08:41;;;;;;;10.90;4.13;;;-3.80;99.90;;;;;;8366075;28;20106;-73
2020/12/26 04:12:42;;;;;;;9.23;4.05;;;-4.00;99.90;;;;;;8365844;28;20025;-72
2020/12/26 04:16:42;;;;;;;9.18;4.70;;;-4.00;99.90;;;;;;8365602;28;20044;-74
2020/12/26 04:20:43;;;;;;;8.48;4.40;;;-3.90;99.90;;;;;;8365435;28;20483;-73
2020/12/26 04:24:44;;;;;;;6.72;4.38;;;-4.20;99.90;;;;;;8365884;28;20487;-72
2020/12/26 04:28:44;;;;;;;9.50;4.82;;;-3.80;99.90;;;;;;8365443;28;20055;-72
2020/12/26 04:32:45;;;;;;;7.45;4.40;;;-3.60;99.90;;;;;;8365659;28;20028;-72
2020/12/26 04:36:45;;;;;;;8.52;3.97;;;-3.80;99.90;;;;;;8365299;28;20067;-73
2020/12/26 04:40:47;;;;;;;7.15;4.25;;;-3.60;99.90;;;;;;8364238;28;20059;-72
2020/12/26 04:44:48;;;;;;;7.18;4.32;;;-3.10;99.90;;;;;;8364942;28;20025;-74
2020/12/26 04:49:01;;;;;;;6.95;4.15;;;-3.10;99.90;;;;;;8365103;28;20044;-73
2020/12/26 04:53:04;;;;;;;5.97;3.97;;;-3.10;99.90;;;;;;8364802;28;20063;-73
2020/12/26 04:57:06;;;;;;;7.47;4.20;;;-3.20;99.90;;;;;;8364206;28;20041;-72
2020/12/26 05:01:08;;;;;;;5.38;3.72;;;-2.90;99.90;;;;;;8364629;28;20052;-72
2020/12/26 05:05:09;;;;;;;6.93;3.83;;;-2.70;99.90;;;;;;8363987;28;20037;-73
2020/12/26 05:09:09;;;;;;;10.88;4.45;;;-2.80;99.90;;;;;;8362200;28;20032;-72
2020/12/26 05:13:12;;;;;;;9.77;5.75;;;-3.10;99.90;;;;;;8364389;28;20029;-72
2020/12/26 05:17:13;;;;;;;11.60;5.88;;;-3.20;99.90;;;;;;8363750;28;20031;-72
2020/12/26 05:21:23;;;;;;;12.95;5.50;;;-2.70;99.90;;;;;;8363987;28;20026;-72
2020/12/26 05:25:25;;;;;;;7.15;4.43;;;-2.40;99.90;;;;;;8362608;28;20068;-72
2020/12/26 05:29:28;;;;;;;9.30;5.00;;;-2.60;99.90;;;;;;8362404;28;20456;-72
2020/12/26 05:33:29;;;;;;;6.28;3.70;;;-2.60;99.90;;;;;;8363331;28;20417;-72
2020/12/26 05:37:30;;;;;;;7.60;4.35;;;-2.50;99.90;;;;;;8363424;28;20554;-72
2020/12/26 05:41:31;;;;;;;8.43;4.70;;;-2.70;99.90;;;;;;8362026;28;20021;-73
2020/12/26 05:45:38;;;;;;;9.82;4.88;;;-2.80;99.90;;;;;;8363353;28;20044;-72
2020/12/26 05:49:40;;;;;;;8.43;4.78;;;-2.90;99.90;;;;;;8362450;28;20025;-72
2020/12/26 05:53:41;;;;;;;8.40;4.78;;;-2.80;99.90;;;;;;8356474;28;20115;-73
2020/12/26 05:57:43;;;;;;;7.00;4.20;;;-2.80;99.90;;;;;;8357427;28;20395;-73
2020/12/26 06:01:43;;;;;;;5.85;4.07;;;-2.80;99.90;;;;;;8361293;28;20645;-73
2020/12/26 06:05:47;;;;;;;8.75;4.72;;;-2.70;99.90;;;;;;8362166;28;20025;-73
2020/12/26 06:09:52;;;;;;;7.93;4.40;;;-2.80;99.90;;;;;;8360925;28;20171;-73
2020/12/26 06:13:53;;;;;;;8.75;4.88;;;-2.70;99.90;;;;;;8360852;28;20043;-72
2020/12/26 06:17:55;;;;;;;9.20;5.35;;;-2.80;99.90;;;;;;8359649;28;20049;-73
2020/12/26 06:21:57;;;;;;;11.43;5.82;;;-2.90;99.90;;;;;;8359004;28;20048;-73
2020/12/26 06:25:58;;;;;;;9.98;5.90;;;-2.70;99.90;;;;;;8361464;28;20057;-74
2020/12/26 06:30:01;;;;;;;13.52;6.75;;;-2.70;99.90;;;;;;8359950;28;20039;-73
2020/12/26 06:34:02;;;;;;;14.20;6.60;;;-2.60;99.90;;;;;;8360150;28;20025;-73
2020/12/26 06:38:23;;;;;;;15.50;6.55;;;-2.40;99.90;;;;;;8360609;28;20025;-72
2020/12/26 06:42:24;;;;;;;12.55;6.72;;;-2.50;99.90;;;;;;8359705;28;20029;-73
2020/12/26 06:46:28;;;;;;;14.07;6.72;;;-2.30;99.90;;;;;;8360416;28;20032;-72
2020/12/26 06:50:31;;;;;;;13.35;7.05;;;-2.40;99.90;;;;;;8360235;28;20048;-73
2020/12/26 06:54:42;;;;;;;11.60;6.30;;;-2.40;99.90;;;;;;8359204;28;20029;-73
2020/12/26 06:58:45;;;;;;;11.20;6.38;;;-2.20;99.90;;;;;;8359519;28;20043;-73
2020/12/26 07:02:46;;;;;;;13.32;5.75;;;-2.20;99.90;;;;;;8359596;28;20090;-73
2020/12/26 07:06:53;;;;;;;10.07;5.03;;;-2.00;99.90;;;;;;8355875;28;20062;-73
2020/12/26 07:10:59;;;;;;;10.32;6.00;;;-2.10;99.90;;;;;;8357641;28;20579;-74
2020/12/26 07:15:00;;;;;;;13.98;6.72;;;-2.00;99.90;;;;;;8358801;28;20040;-76
2020/12/26 07:19:21;;;;;;;33.45;12.02;;;-2.10;99.90;;;;;;8358948;28;20150;-75
2020/12/26 07:23:22;;;;;;;29.80;11.93;;;-2.10;99.90;;;;;;8356988;28;20771;-75
2020/12/26 07:27:39;;;;;;;35.17;13.07;;;-1.80;99.90;;;;;;8358416;28;20025;-74
2020/12/26 07:31:49;;;;;;;21.50;10.32;;;-1.70;99.90;;;;;;8357449;28;20104;-74
2020/12/26 07:35:49;;;;;;;22.20;9.40;;;-1.60;99.90;;;;;;8356992;28;20383;-71
2020/12/26 07:39:50;;;;;;;16.63;9.48;;;-1.50;99.90;;;;;;8352542;28;20025;-67
2020/12/26 07:43:52;;;;;;;19.95;10.70;;;-1.40;99.90;;;;;;8355775;28;20025;-68
2020/12/26 07:47:54;;;;;;;17.30;8.52;;;-1.20;99.90;;;;;;8357888;28;20029;-68
2020/12/26 07:52:06;;;;;;;28.60;15.88;;;-0.70;99.90;;;;;;8355387;28;20028;-68
2020/12/26 07:56:07;;;;;;;17.98;10.70;;;0.20;99.90;;;;;;8369118;28;20029;-68
2020/12/26 08:00:28;;;;;;;15.18;8.32;;;0.40;99.90;;;;;;8371438;28;20028;-68
2020/12/26 08:04:42;;;;;;;12.98;8.07;;;0.30;99.90;;;;;;8354266;28;20395;-68
2020/12/26 08:08:43;;;;;;;13.63;7.50;;;0.00;99.90;;;;;;8357219;28;20021;-68
2020/12/26 08:13:01;;;;;;;14.10;7.32;;;-0.10;99.90;;;;;;8357185;28;20496;-68
2020/12/26 08:17:03;;;;;;;10.85;6.68;;;-0.20;99.90;;;;;;8370105;28;20116;-69
2020/12/26 08:21:06;;;;;;;9.63;5.82;;;-0.20;99.90;;;;;;8356465;28;20104;-68
2020/12/26 08:25:08;;;;;;;13.57;7.75;;;-0.30;99.90;;;;;;8353627;28;20021;-68
2020/12/26 08:29:10;;;;;;;18.88;9.48;;;-0.20;99.90;;;;;;8352079;28;20043;-68
2020/12/26 08:33:26;;;;;;;15.98;8.55;;;0.00;99.90;;;;;;8349700;28;20028;-69
2020/12/26 08:37:33;;;;;;;14.90;7.85;;;0.00;99.90;;;;;;8358535;28;20475;-69
2020/12/26 08:41:42;;;;;;;14.02;7.25;;;-0.10;99.90;;;;;;8360683;28;20087;-70
2020/12/26 08:45:42;;;;;;;10.63;6.27;;;0.10;99.90;;;;;;8335613;28;20030;-69
2020/12/26 08:49:46;;;;;;;9.90;5.72;;;0.40;99.90;;;;;;8360267;28;20302;-71
2020/12/26 08:53:48;;;;;;;12.48;6.05;;;0.70;99.90;;;;;;8360637;28;20044;-70
2020/12/26 08:57:57;;;;;;;12.63;7.75;;;1.00;99.90;;;;;;8361639;28;20031;-71
2020/12/26 09:01:57;;;;;;;11.27;6.63;;;0.90;99.90;;;;;;8354368;28;20025;-67
2020/12/26 09:06:00;;;;;;;11.75;6.82;;;1.00;99.90;;;;;;8365834;28;20048;-70
2020/12/26 09:10:11;;;;;;;7.82;4.85;;;1.10;99.90;;;;;;8362568;28;20033;-67
2020/12/26 09:14:15;;;;;;;6.80;4.22;;;0.90;99.90;;;;;;8357923;28;20028;-67
2020/12/26 09:18:29;;;;;;;6.40;4.03;;;0.70;99.90;;;;;;8352835;28;20043;-67
2020/12/26 09:22:29;;;;;;;11.45;5.40;;;0.60;99.90;;;;;;8356696;28;20033;-68
2020/12/26 09:26:39;;;;;;;10.07;5.22;;;0.60;99.90;;;;;;8359131;28;20028;-70
2020/12/26 09:30:39;;;;;;;5.90;3.55;;;0.60;99.90;;;;;;8356642;28;20469;-66
2020/12/26 09:34:42;;;;;;;5.38;3.50;;;0.80;99.90;;;;;;8346691;28;20328;-69
2020/12/26 09:38:43;;;;;;;8.00;3.25;;;0.70;99.90;;;;;;8365545;28;20022;-68
2020/12/26 09:42:43;;;;;;;8.68;3.60;;;0.70;99.90;;;;;;8343319;28;20064;-68
2020/12/26 09:46:44;;;;;;;3.55;2.80;;;0.50;99.90;;;;;;8360143;28;20063;-67
2020/12/26 09:50:45;;;;;;;4.25;2.47;;;0.50;99.90;;;;;;8361922;28;20114;-67
2020/12/26 09:54:45;;;;;;;6.40;3.47;;;0.60;99.90;;;;;;8332059;28;20033;-69
2020/12/26 09:58:48;;;;;;;5.28;3.47;;;0.70;99.90;;;;;;8359465;28;20390;-68
2020/12/26 10:02:48;;;;;;;5.80;3.03;;;0.80;99.90;;;;;;8358813;28;20029;-68
2020/12/26 10:06:49;;;;;;;5.55;2.83;;;1.20;99.90;;;;;;8358901;28;20120;-68
2020/12/26 10:10:50;;;;;;;5.93;3.00;;;1.40;99.90;;;;;;8358784;28;20139;-70
2020/12/26 10:14:51;;;;;;;5.65;2.90;;;1.40;99.90;;;;;;8358775;28;20033;-69
2020/12/26 10:18:51;;;;;;;4.30;2.55;;;1.70;99.90;;;;;;8356554;28;20075;-68
2020/12/26 10:22:52;;;;;;;2.90;2.33;;;2.30;99.90;;;;;;8358919;28;20056;-69
2020/12/26 10:26:52;;;;;;;3.25;1.67;;;3.00;99.90;;;;;;8355802;28;20391;-68
2020/12/26 10:30:53;;;;;;;2.17;1.63;;;3.00;99.90;;;;;;8375380;28;20055;-69
2020/12/26 10:34:53;;;;;;;3.25;1.85;;;3.10;99.90;;;;;;8360033;28;20025;-69
2020/12/26 10:38:54;;;;;;;2.97;2.13;;;3.10;99.90;;;;;;8358165;28;20024;-69
2020/12/26 10:42:55;;;;;;;3.83;2.08;;;2.90;99.90;;;;;;8359562;28;20029;-69
2020/12/26 10:46:55;;;;;;;2.88;1.85;;;3.00;99.90;;;;;;8356891;28;20116;-69
2020/12/26 10:50:56;;;;;;;3.40;2.47;;;3.20;99.90;;;;;;8357831;28;20487;-70
2020/12/26 10:54:57;;;;;;;2.65;2.15;;;3.90;99.90;;;;;;8360076;28;20033;-71
2020/12/26 10:58:58;;;;;;;2.92;2.45;;;6.50;99.90;;;;;;8360388;28;20040;-70
2020/12/26 11:02:58;;;;;;;5.28;2.80;;;6.00;99.90;;;;;;8359604;28;20067;-70
2020/12/26 11:06:59;;;;;;;3.67;2.60;;;5.30;99.90;;;;;;8358231;28;20025;-69
2020/12/26 11:10:59;;;;;;;6.13;2.90;;;4.70;99.90;;;;;;8360069;28;20033;-70
2020/12/26 11:15:01;;;;;;;2.95;1.95;;;5.90;99.90;;;;;;8359278;28;20025;-69
2020/12/26 11:19:01;;;;;;;4.93;2.75;;;6.50;99.90;;;;;;8358262;28;20386;-70
2020/12/26 11:23:02;;;;;;;5.97;2.63;;;6.20;99.90;;;;;;8353421;28;20029;-70
2020/12/26 11:27:02;;;;;;;5.07;2.47;;;5.80;99.90;;;;;;8358178;28;20028;-71
2020/12/26 11:31:03;;;;;;;3.80;2.35;;;5.70;99.90;;;;;;8349648;28;20399;-71
2020/12/26 11:35:04;;;;;;;4.10;2.50;;;4.70;99.90;;;;;;8354933;28;20021;-71
2020/12/26 11:39:04;;;;;;;4.43;2.50;;;4.40;99.90;;;;;;8357418;28;20032;-72
2020/12/26 11:43:05;;;;;;;6.38;2.58;;;4.50;99.90;;;;;;8352691;28;20032;-71
2020/12/26 11:47:06;;;;;;;3.35;2.05;;;4.70;99.90;;;;;;8355514;28;20021;-71
2020/12/26 11:51:08;;;;;;;3.75;2.20;;;4.40;99.90;;;;;;8354155;28;20043;-71
2020/12/26 11:55:10;;;;;;;3.65;2.33;;;4.50;99.90;;;;;;8364360;28;20067;-72
2020/12/26 11:59:11;;;;;;;4.55;2.40;;;4.50;99.90;;;;;;8350961;28;20049;-73
2020/12/26 12:03:11;;;;;;;3.67;2.05;;;4.50;99.90;;;;;;8353076;28;20040;-72
2020/12/26 12:07:13;;;;;;;4.47;2.63;;;4.20;99.90;;;;;;8352581;28;20033;-72
2020/12/26 12:11:17;;;;;;;7.18;2.65;;;3.80;99.90;;;;;;8354478;28;20065;-73
2020/12/26 12:15:17;;;;;;;6.72;3.08;;;3.70;99.90;;;;;;8355724;28;20390;-73
2020/12/26 12:19:18;;;;;;;3.80;2.20;;;4.00;99.90;;;;;;8348558;28;20036;-72
2020/12/26 12:23:18;;;;;;;4.10;2.70;;;4.10;99.90;;;;;;8360711;28;20033;-73
2020/12/26 12:27:19;;;;;;;6.72;2.95;;;4.50;99.90;;;;;;8353658;28;20446;-72
2020/12/26 12:31:25;;;;;;;5.85;3.13;;;4.80;99.90;;;;;;8359845;28;20093;-73
2020/12/26 12:35:26;;;;;;;3.70;2.70;;;5.70;99.90;;;;;;8359910;28;20446;-73
2020/12/26 12:39:27;;;;;;;3.25;2.42;;;8.10;99.90;;;;;;8358956;28;20021;-73
2020/12/26 12:43:27;;;;;;;4.55;3.10;;;9.80;95.70;;;;;;8343387;28;20029;-74
2020/12/26 12:47:28;;;;;;;4.03;2.50;;;11.00;89.00;;;;;;8359450;28;20024;-73
2020/12/26 12:51:29;;;;;;;3.72;2.17;;;11.90;79.40;;;;;;8359701;28;20553;-74
2020/12/26 12:55:29;;;;;;;4.00;2.20;;;10.40;77.70;;;;;;8355696;28;20112;-72
2020/12/26 12:59:32;;;;;;;4.47;2.53;;;9.20;82.50;;;;;;8341568;28;20113;-68
2020/12/26 13:03:33;;;;;;;3.50;2.15;;;9.10;81.40;;;;;;8357807;28;20116;-67
2020/12/26 13:07:34;;;;;;;4.63;1.88;;;8.50;83.90;;;;;;8357000;28;20714;-67
2020/12/26 13:11:34;;;;;;;4.78;2.13;;;8.10;84.30;;;;;;8354829;28;20071;-65
2020/12/26 13:15:38;;;;;;;4.07;2.20;;;8.40;82.80;;;;;;8355713;28;20031;-68
2020/12/26 13:19:39;;;;;;;3.47;2.13;;;8.90;81.20;;;;;;8358095;28;20029;-67
2020/12/26 13:23:40;;;;;;;2.92;1.90;;;9.60;76.80;;;;;;8356771;28;20063;-69
2020/12/26 13:27:40;;;;;;;2.78;1.92;;;9.80;75.90;;;;;;8360122;28;20025;-68
2020/12/26 13:31:41;;;;;;;3.25;2.00;;;;;;;;;;8360389;28;20090;-68
2020/12/26 13:35:42;;;;;;;1.98;1.73;;;11.90;97.20;;;;;;8350646;28;20017;-66
2020/12/26 13:39:42;;;;;;;2.70;1.70;;;11.40;62.90;;;;;;8355310;28;20051;-68
2020/12/26 13:43:48;;;;;;;2.58;2.00;;;;;;;;;;8360472;28;20024;-67
2020/12/26 13:47:48;;;;;;;3.58;1.90;;;9.30;66.30;;;;;;8362138;28;20025;-66
2020/12/26 13:51:49;;;;;;;4.63;2.10;;;6.80;70.60;;;;;;8361694;28;20031;-66
2020/12/26 13:55:50;;;;;;;3.33;1.70;;;4.80;78.40;;;;;;8361628;28;20376;-66
2020/12/26 13:59:50;;;;;;;3.17;1.67;;;3.90;81.70;;;;;;8356518;28;20071;-66
2020/12/26 14:03:51;;;;;;;2.75;1.70;;;3.70;85.40;;;;;;8358546;28;20029;-66
2020/12/26 14:07:52;;;;;;;2.83;1.70;;;3.60;85.50;;;;;;8360337;28;20510;-65
2020/12/26 14:11:52;;;;;;;4.07;2.00;;;3.30;87.50;;;;;;8360230;28;20090;-67
2020/12/26 14:15:53;;;;;;;3.92;2.40;;;3.00;91.40;;;;;;8361464;28;20499;-65
2020/12/26 14:19:54;;;;;;;7.00;3.95;;;2.60;93.10;;;;;;8360125;28;20021;-67
2020/12/26 14:23:54;;;;;;;5.38;2.78;;;2.30;94.60;;;;;;8340497;28;20112;-65
2020/12/26 14:27:55;;;;;;;4.35;2.42;;;2.30;96.30;;;;;;8361658;28;20098;-67
2020/12/26 14:31:56;;;;;;;7.75;5.15;;;2.20;97.60;;;;;;8359812;28;20486;-66
2020/12/26 14:35:56;;;;;;;4.38;2.72;;;2.10;99.10;;;;;;8360250;28;20021;-66
2020/12/26 14:39:57;;;;;;;5.32;2.88;;;1.80;99.90;;;;;;8358203;28;20021;-65
2020/12/26 14:43:57;;;;;;;5.32;2.60;;;1.80;99.90;;;;;;8358923;28;20020;-65
2020/12/26 14:48:07;;;;;;;4.43;2.50;;;1.60;99.90;;;;;;8359522;28;20029;-68
2020/12/26 14:52:08;;;;;;;3.83;2.70;;;1.40;99.90;;;;;;8354948;28;20039;-67
2020/12/26 14:56:13;;;;;;;4.10;2.80;;;1.30;99.90;;;;;;8358209;28;20486;-66
2020/12/26 15:00:13;;;;;;;3.13;1.98;;;1.20;99.90;;;;;;8356520;28;20032;-66
2020/12/26 15:04:15;;;;;;;4.95;3.10;;;1.10;99.90;;;;;;8352216;28;20586;-66
2020/12/26 15:08:15;;;;;;;6.75;4.10;;;0.90;99.90;;;;;;8352770;28;20033;-65
2020/12/26 15:12:16;;;;;;;6.15;3.40;;;0.80;99.90;;;;;;8354272;28;20132;-65
2020/12/26 15:16:17;;;;;;;14.02;10.07;;;0.70;99.90;;;;;;8352612;28;20055;-69
2020/12/26 15:20:17;;;;;;;16.05;8.73;;;0.60;99.90;;;;;;8350086;28;20108;-70
2020/12/26 15:24:18;;;;;;;13.93;5.82;;;0.40;99.90;;;;;;8355272;28;20040;-70
2020/12/26 15:28:19;;;;;;;46.72;20.25;;;0.30;99.90;;;;;;8355201;28;20036;-70
2020/12/26 15:32:19;;;;;;;15.55;8.73;;;0.20;99.90;;;;;;8345492;28;20502;-69
2020/12/26 15:36:22;;;;;;;27.95;13.00;;;0.20;99.90;;;;;;8352843;28;20024;-72
2020/12/26 15:40:22;;;;;;;50.45;21.42;;;0.00;99.90;;;;;;8354675;28;20100;-71
2020/12/26 15:44:23;;;;;;;50.70;19.15;;;0.10;99.90;;;;;;8353974;28;20028;-68
2020/12/26 15:48:23;;;;;;;29.35;11.27;;;0.00;99.90;;;;;;8356408;28;20775;-73
2020/12/26 15:52:24;;;;;;;8.55;4.13;;;-0.20;99.90;;;;;;8362447;28;20025;-72
2020/12/26 15:56:30;;;;;;;14.77;8.85;;;-0.50;99.90;;;;;;8362807;28;20032;-72
2020/12/26 16:00:31;;;;;;;6.43;3.72;;;-0.70;99.90;;;;;;8364879;28;20071;-70
2020/12/26 16:04:33;;;;;;;7.57;3.67;;;-0.90;99.90;;;;;;8365131;28;20028;-70
2020/12/26 16:08:34;;;;;;;6.97;4.00;;;-0.90;99.90;;;;;;8347515;28;20076;-72
2020/12/26 16:12:35;;;;;;;8.40;4.18;;;-1.00;99.90;;;;;;8349350;28;20029;-71
2020/12/26 16:16:37;;;;;;;7.57;3.88;;;-1.10;99.90;;;;;;8360167;28;20021;-69
2020/12/26 16:20:37;;;;;;;10.20;4.20;;;-1.10;99.90;;;;;;8366248;28;20031;-73
2020/12/26 16:24:38;;;;;;;6.13;3.20;;;-1.40;99.90;;;;;;8354289;28;20040;-73
2020/12/26 16:28:39;;;;;;;13.57;8.25;;;-1.50;99.90;;;;;;8361747;28;20078;-75
2020/12/26 16:32:43;;;;;;;8.23;5.00;;;-1.50;99.90;;;;;;8361963;28;20024;-75
2020/12/26 16:36:43;;;;;;;5.38;3.33;;;-1.50;99.90;;;;;;8357006;28;20025;-74
2020/12/26 16:40:45;;;;;;;9.05;5.35;;;-1.60;99.90;;;;;;8364448;28;20029;-74
2020/12/26 16:44:46;;;;;;;15.13;9.77;;;-1.40;99.90;;;;;;8365992;28;20075;-74
2020/12/26 16:48:46;;;;;;;16.55;10.90;;;-1.50;99.90;;;;;;8363168;28;20021;-74
2020/12/26 16:52:47;;;;;;;11.50;6.47;;;-1.70;99.90;;;;;;8362642;28;20032;-74
2020/12/26 16:56:50;;;;;;;10.38;5.35;;;-1.70;99.90;;;;;;8366112;28;20059;-74
2020/12/26 17:00:51;;;;;;;7.93;4.38;;;-1.90;99.90;;;;;;8366478;28;20107;-74
2020/12/26 17:04:51;;;;;;;7.68;4.47;;;-1.90;99.90;;;;;;8360123;28;20032;-73
2020/12/26 17:08:52;;;;;;;11.95;5.28;;;-1.90;99.90;;;;;;8359948;28;20057;-74
2020/12/26 17:12:53;;;;;;;11.25;4.95;;;-2.10;99.90;;;;;;8360510;28;20075;-74
2020/12/26 17:16:54;;;;;;;7.88;4.38;;;-2.00;99.90;;;;;;8360854;28;20025;-73
2020/12/26 17:20:57;;;;;;;12.45;6.97;;;-2.10;99.90;;;;;;8356128;28;20040;-75
2020/12/26 17:24:58;;;;;;;13.10;7.03;;;-2.20;99.90;;;;;;8349576;28;20043;-74
2020/12/26 17:28:58;;;;;;;13.15;6.97;;;-2.30;99.90;;;;;;8351091;28;20025;-75
2020/12/26 17:32:59;;;;;;;10.32;5.35;;;-2.50;99.90;;;;;;8358661;28;20074;-74
2020/12/26 17:37:01;;;;;;;11.27;6.45;;;-2.30;99.90;;;;;;8356967;28;20503;-75
2020/12/26 17:41:02;;;;;;;12.15;6.38;;;-2.30;99.90;;;;;;8352814;28;20421;-74
2020/12/26 17:45:04;;;;;;;11.48;6.13;;;-2.60;99.90;;;;;;8358222;28;20037;-74
2020/12/26 17:49:06;;;;;;;9.95;6.40;;;-2.90;99.90;;;;;;8355851;28;20033;-72
2020/12/26 17:53:06;;;;;;;12.68;7.28;;;-2.90;99.90;;;;;;8357604;28;20117;-72
2020/12/26 17:57:07;;;;;;;15.18;7.05;;;-2.70;99.90;;;;;;8357321;28;20449;-73
2020/12/26 18:01:09;;;;;;;14.57;7.95;;;-2.60;99.90;;;;;;8356210;28;20093;-74
2020/12/26 18:05:09;;;;;;;24.35;12.00;;;-2.60;99.90;;;;;;8354433;28;20645;-72
2020/12/26 18:09:10;;;;;;;22.40;11.70;;;-2.60;99.90;;;;;;8351101;28;20029;-74
2020/12/26 18:13:11;;;;;;;25.17;11.63;;;-2.80;99.90;;;;;;8353166;28;20510;-70
2020/12/26 18:17:13;;;;;;;21.88;9.73;;;-3.10;99.90;;;;;;8350794;28;20376;-70
2020/12/26 18:21:14;;;;;;;17.67;10.55;;;-3.30;99.90;;;;;;8352692;28;20082;-69
2020/12/26 18:25:15;;;;;;;25.30;12.73;;;-3.20;99.90;;;;;;8355698;28;20025;-70
2020/12/26 18:29:16;;;;;;;19.42;10.63;;;-3.20;99.90;;;;;;8354121;28;20116;-70
2020/12/26 18:33:16;;;;;;;21.95;11.00;;;-3.30;99.90;;;;;;8354820;28;20025;-69
2020/12/26 18:37:17;;;;;;;24.30;13.77;;;-3.30;99.90;;;;;;8355700;28;20128;-69
2020/12/26 18:41:22;;;;;;;30.23;15.27;;;-3.30;99.90;;;;;;8356429;28;20029;-70
2020/12/26 18:45:23;;;;;;;24.10;13.02;;;-3.30;99.90;;;;;;8354914;28;20094;-70
2020/12/26 18:49:24;;;;;;;20.70;10.90;;;-3.30;99.90;;;;;;8354941;28;20495;-70
2020/12/26 18:53:25;;;;;;;18.30;9.68;;;-3.50;99.90;;;;;;8355049;28;20083;-70
2020/12/26 18:57:26;;;;;;;15.65;9.45;;;-3.60;99.90;;;;;;8352834;28;20024;-70
2020/12/26 19:01:27;;;;;;;14.32;7.75;;;-3.70;99.90;;;;;;8346429;28;20051;-69
2020/12/26 19:05:28;;;;;;;17.52;7.53;;;-3.50;99.90;;;;;;8353556;28;20465;-70
2020/12/26 19:09:28;;;;;;;17.52;7.60;;;-3.40;99.90;;;;;;8355407;28;20021;-69
2020/12/26 19:13:29;;;;;;;14.98;7.20;;;-3.30;99.90;;;;;;8345164;28;20033;-70
2020/12/26 19:17:30;;;;;;;12.23;6.90;;;-3.40;99.90;;;;;;8354939;28;20037;-70
2020/12/26 19:21:31;;;;;;;14.35;8.15;;;-3.30;99.90;;;;;;8355953;28;20027;-70
2020/12/26 19:25:31;;;;;;;11.52;7.40;;;-3.30;99.90;;;;;;8354771;28;20025;-70
2020/12/26 19:29:32;;;;;;;9.48;6.20;;;-3.30;99.90;;;;;;8355301;28;20053;-70
2020/12/26 19:33:36;;;;;;;13.80;8.00;;;-3.40;99.90;;;;;;8352786;28;20040;-69
2020/12/26 19:37:38;;;;;;;13.35;6.78;;;-3.50;99.90;;;;;;8355197;28;20618;-70
2020/12/26 19:41:39;;;;;;;18.02;8.90;;;-3.70;99.90;;;;;;8353124;28;20131;-69
2020/12/26 19:45:39;;;;;;;10.30;6.13;;;-3.80;99.90;;;;;;8353020;28;20039;-71
2020/12/26 19:49:41;;;;;;;8.85;4.90;;;-3.80;99.90;;;;;;8337435;28;20032;-70
2020/12/26 19:53:43;;;;;;;9.48;5.80;;;-3.50;99.90;;;;;;8353763;28;20017;-70
2020/12/26 19:57:44;;;;;;;21.20;8.98;;;-3.30;99.90;;;;;;8351625;28;20326;-70
2020/12/26 20:01:45;;;;;;;21.15;8.65;;;-3.20;99.90;;;;;;8353377;28;20025;-70
2020/12/26 20:05:45;;;;;;;27.50;11.27;;;-3.20;99.90;;;;;;8351282;28;20455;-70
2020/12/26 20:09:46;;;;;;;13.07;6.68;;;-3.10;99.90;;;;;;8353327;28;20029;-71
2020/12/26 20:13:47;;;;;;;9.68;5.18;;;-3.20;99.90;;;;;;8344932;28;20108;-71
2020/12/26 20:17:47;;;;;;;14.40;7.45;;;-3.20;99.90;;;;;;8339739;28;20025;-70
2020/12/26 20:21:48;;;;;;;12.52;6.90;;;-3.30;99.90;;;;;;8353349;28;20025;-70
2020/12/26 20:25:48;;;;;;;8.82;4.95;;;-3.40;99.90;;;;;;8346927;28;20082;-70
2020/12/26 20:29:49;;;;;;;11.70;5.70;;;-3.50;99.90;;;;;;8352129;28;20040;-70
2020/12/26 20:33:50;;;;;;;12.90;6.07;;;-3.40;99.90;;;;;;8353962;28;20395;-69
2020/12/26 20:37:50;;;;;;;11.40;6.57;;;-3.30;99.90;;;;;;8356572;28;20406;-70
2020/12/26 20:41:51;;;;;;;11.27;6.30;;;-3.30;99.90;;;;;;8358986;28;20039;-70
2020/12/26 20:45:52;;;;;;;14.73;6.57;;;-3.20;99.90;;;;;;8360748;28;20029;-70
2020/12/26 20:49:52;;;;;;;14.82;6.57;;;-3.20;99.90;;;;;;8359798;28;20501;-70
2020/12/26 20:53:53;;;;;;;10.80;5.82;;;-3.20;99.90;;;;;;8361125;28;20032;-69
2020/12/26 20:57:53;;;;;;;11.48;6.20;;;-3.50;99.90;;;;;;8360825;28;20036;-70
2020/12/26 21:01:54;;;;;;;12.27;6.72;;;-3.50;99.90;;;;;;8350333;28;20031;-70
2020/12/26 21:05:56;;;;;;;12.38;6.68;;;-3.60;99.90;;;;;;8345110;28;20021;-69